sensor_id;sensor_type;location;lat;lon;timestamp;P1;durP1;ratioP1;P2;durP2;ratioP2
11211;SDS011;5663;50.864;12.096;2023-02-01T00:01:20;7.60;;;2.90;;
11211;SDS011;5663;50.864;12.096;2023-02-01T00:03:50;6.30;;;2.83;;
11211;SDS011;5663;50.864;12.096;2023-02-01T00:06:20;8.37;;;3.23;;
11211;SDS011;5663;50.864;12.096;2023-02-01T00:08:51;7.90;;;3.30;;
11211;SDS011;5663;50.864;12.096;2023-02-01T00:11:22;9.83;;;3.07;;
11211;SDS011;5663;50.864;12.096;2023-02-01T01:14:02;8.63;;;3.43;;
11211;SDS011;5663;50.864;12.096;2023-02-01T01:16:34;7.30;;;2.80;;
11211;SDS011;5663;50.864;12.096;2023-02-01T01:19:04;6.47;;;2.90;;
11211;SDS011;5663;50.864;12.096;2023-02-01T01:21:34;7.83;;;2.70;;
11211;SDS011;5663;50.864;12.096;2023-02-01T01:24:05;7.07;;;3.10;;
11211;SDS011;5663;50.864;12.096;2023-02-01T01:26:35;11.07;;;2.90;;
11211;SDS011;5663;50.864;12.096;2023-02-01T01:29:09;7.63;;;2.60;;
11211;SDS011;5663;50.864;12.096;2023-02-01T01:31:39;8.07;;;2.73;;
11211;SDS011;5663;50.864;12.096;2023-02-01T01:34:09;7.83;;;2.67;;
11211;SDS011;5663;50.864;12.096;2023-02-01T01:36:39;8.13;;;2.77;;
11211;SDS011;5663;50.864;12.096;2023-02-01T01:39:08;8.00;;;2.60;;
11211;SDS011;5663;50.864;12.096;2023-02-01T01:45:34;14.53;;;3.20;;
11211;SDS011;5663;50.864;12.096;2023-02-01T01:48:04;6.03;;;2.90;;
11211;SDS011;5663;50.864;12.096;2023-02-01T01:50:37;9.83;;;2.83;;
11211;SDS011;5663;50.864;12.096;2023-02-01T01:53:16;10.33;;;3.17;;
11211;SDS011;5663;50.864;12.096;2023-02-01T01:55:49;8.27;;;2.80;;
11211;SDS011;5663;50.864;12.096;2023-02-01T01:58:21;8.63;;;3.20;;
11211;SDS011;5663;50.864;12.096;2023-02-01T02:01:08;9.87;;;2.60;;
11211;SDS011;5663;50.864;12.096;2023-02-01T02:03:39;7.63;;;2.90;;
11211;SDS011;5663;50.864;12.096;2023-02-01T02:06:12;8.50;;;2.67;;
11211;SDS011;5663;50.864;12.096;2023-02-01T02:08:50;7.60;;;2.80;;
11211;SDS011;5663;50.864;12.096;2023-02-01T02:11:19;10.60;;;2.80;;
11211;SDS011;5663;50.864;12.096;2023-02-01T02:13:50;7.50;;;2.70;;
11211;SDS011;5663;50.864;12.096;2023-02-01T02:16:46;5.50;;;2.50;;
11211;SDS011;5663;50.864;12.096;2023-02-01T02:32:26;8.10;;;2.40;;
11211;SDS011;5663;50.864;12.096;2023-02-01T02:35:21;8.73;;;2.43;;
11211;SDS011;5663;50.864;12.096;2023-02-01T02:37:59;8.30;;;2.73;;
11211;SDS011;5663;50.864;12.096;2023-02-01T02:40:41;7.20;;;2.70;;
11211;SDS011;5663;50.864;12.096;2023-02-01T02:43:18;10.63;;;3.00;;
11211;SDS011;5663;50.864;12.096;2023-02-01T02:46:09;8.10;;;2.87;;
11211;SDS011;5663;50.864;12.096;2023-02-01T02:49:01;10.97;;;2.77;;
11211;SDS011;5663;50.864;12.096;2023-02-01T02:51:43;8.10;;;2.20;;
11211;SDS011;5663;50.864;12.096;2023-02-01T02:54:33;8.80;;;3.27;;
11211;SDS011;5663;50.864;12.096;2023-02-01T02:57:22;10.20;;;3.00;;
11211;SDS011;5663;50.864;12.096;2023-02-01T03:00:14;11.80;;;3.10;;
11211;SDS011;5663;50.864;12.096;2023-02-01T03:03:01;7.50;;;2.60;;
11211;SDS011;5663;50.864;12.096;2023-02-01T03:05:47;9.80;;;3.10;;
11211;SDS011;5663;50.864;12.096;2023-02-01T03:08:24;8.70;;;2.80;;
11211;SDS011;5663;50.864;12.096;2023-02-01T03:10:55;7.13;;;3.13;;
11211;SDS011;5663;50.864;12.096;2023-02-01T03:13:32;13.63;;;3.10;;
11211;SDS011;5663;50.864;12.096;2023-02-01T03:16:06;10.07;;;3.27;;
11211;SDS011;5663;50.864;12.096;2023-02-01T03:18:44;8.93;;;2.63;;
11211;SDS011;5663;50.864;12.096;2023-02-01T03:21:20;11.30;;;3.50;;
11211;SDS011;5663;50.864;12.096;2023-02-01T03:23:56;7.13;;;2.60;;
11211;SDS011;5663;50.864;12.096;2023-02-01T03:26:30;10.53;;;2.80;;
11211;SDS011;5663;50.864;12.096;2023-02-01T03:29:05;8.43;;;2.93;;
11211;SDS011;5663;50.864;12.096;2023-02-01T03:31:39;6.77;;;2.20;;
11211;SDS011;5663;50.864;12.096;2023-02-01T03:34:09;7.40;;;2.60;;
11211;SDS011;5663;50.864;12.096;2023-02-01T03:36:40;8.47;;;2.90;;
11211;SDS011;5663;50.864;12.096;2023-02-01T03:39:20;9.53;;;3.10;;
11211;SDS011;5663;50.864;12.096;2023-02-01T03:41:55;11.07;;;3.33;;
11211;SDS011;5663;50.864;12.096;2023-02-01T03:44:29;10.03;;;3.10;;
11211;SDS011;5663;50.864;12.096;2023-02-01T03:47:03;14.10;;;3.20;;
11211;SDS011;5663;50.864;12.096;2023-02-01T03:49:36;9.93;;;3.40;;
11211;SDS011;5663;50.864;12.096;2023-02-01T03:52:09;10.13;;;3.00;;
11211;SDS011;5663;50.864;12.096;2023-02-01T03:54:46;11.50;;;3.17;;
11211;SDS011;5663;50.864;12.096;2023-02-01T03:57:17;12.57;;;2.60;;
11211;SDS011;5663;50.864;12.096;2023-02-01T03:59:50;6.93;;;2.63;;
11211;SDS011;5663;50.864;12.096;2023-02-01T04:02:20;8.83;;;3.27;;
11211;SDS011;5663;50.864;12.096;2023-02-01T04:04:49;12.37;;;3.50;;
11211;SDS011;5663;50.864;12.096;2023-02-01T04:07:19;13.33;;;2.90;;
11211;SDS011;5663;50.864;12.096;2023-02-01T04:09:57;8.97;;;3.13;;
11211;SDS011;5663;50.864;12.096;2023-02-01T04:12:26;11.50;;;3.30;;
11211;SDS011;5663;50.864;12.096;2023-02-01T04:14:56;10.47;;;3.20;;
11211;SDS011;5663;50.864;12.096;2023-02-01T04:17:25;9.47;;;3.30;;
11211;SDS011;5663;50.864;12.096;2023-02-01T04:19:54;10.83;;;3.30;;
11211;SDS011;5663;50.864;12.096;2023-02-01T04:22:24;9.80;;;3.07;;
11211;SDS011;5663;50.864;12.096;2023-02-01T04:24:57;11.03;;;3.13;;
11211;SDS011;5663;50.864;12.096;2023-02-01T04:27:27;8.57;;;2.37;;
11211;SDS011;5663;50.864;12.096;2023-02-01T04:29:58;9.83;;;3.37;;
11211;SDS011;5663;50.864;12.096;2023-02-01T04:32:27;10.03;;;3.33;;
11211;SDS011;5663;50.864;12.096;2023-02-01T04:34:57;11.17;;;2.70;;
11211;SDS011;5663;50.864;12.096;2023-02-01T04:37:26;9.00;;;2.20;;
11211;SDS011;5663;50.864;12.096;2023-02-01T04:40:00;9.00;;;2.50;;
11211;SDS011;5663;50.864;12.096;2023-02-01T04:42:33;9.43;;;2.90;;
11211;SDS011;5663;50.864;12.096;2023-02-01T04:45:03;8.80;;;3.37;;
11211;SDS011;5663;50.864;12.096;2023-02-01T04:47:33;5.53;;;2.47;;
11211;SDS011;5663;50.864;12.096;2023-02-01T04:50:02;6.80;;;2.80;;
11211;SDS011;5663;50.864;12.096;2023-02-01T04:52:33;7.80;;;2.50;;
11211;SDS011;5663;50.864;12.096;2023-02-01T04:55:13;6.83;;;2.80;;
11211;SDS011;5663;50.864;12.096;2023-02-01T04:57:42;8.33;;;2.43;;
11211;SDS011;5663;50.864;12.096;2023-02-01T05:00:12;4.93;;;2.30;;
11211;SDS011;5663;50.864;12.096;2023-02-01T05:02:45;7.00;;;2.43;;
11211;SDS011;5663;50.864;12.096;2023-02-01T05:05:15;10.63;;;2.13;;
11211;SDS011;5663;50.864;12.096;2023-02-01T05:07:45;6.33;;;2.17;;
11211;SDS011;5663;50.864;12.096;2023-02-01T05:10:20;4.70;;;2.30;;
11211;SDS011;5663;50.864;12.096;2023-02-01T05:12:49;8.67;;;2.57;;
11211;SDS011;5663;50.864;12.096;2023-02-01T05:15:34;8.23;;;2.20;;
11211;SDS011;5663;50.864;12.096;2023-02-01T05:18:03;6.20;;;2.20;;
11211;SDS011;5663;50.864;12.096;2023-02-01T06:20:42;8.70;;;3.00;;
11211;SDS011;5663;50.864;12.096;2023-02-01T06:23:11;9.27;;;3.20;;
11211;SDS011;5663;50.864;12.096;2023-02-01T06:25:40;6.53;;;3.13;;
11211;SDS011;5663;50.864;12.096;2023-02-01T06:28:10;11.53;;;3.07;;
11211;SDS011;5663;50.864;12.096;2023-02-01T06:30:39;12.53;;;3.33;;
11211;SDS011;5663;50.864;12.096;2023-02-01T06:33:12;10.67;;;3.27;;
11211;SDS011;5663;50.864;12.096;2023-02-01T06:35:45;10.67;;;3.47;;
11211;SDS011;5663;50.864;12.096;2023-02-01T06:38:15;8.20;;;3.57;;
11211;SDS011;5663;50.864;12.096;2023-02-01T06:40:45;13.17;;;3.23;;
11211;SDS011;5663;50.864;12.096;2023-02-01T06:43:21;13.03;;;3.73;;
11211;SDS011;5663;50.864;12.096;2023-02-01T06:45:51;12.70;;;4.03;;
11211;SDS011;5663;50.864;12.096;2023-02-01T06:48:21;11.10;;;3.60;;
11211;SDS011;5663;50.864;12.096;2023-02-01T06:50:56;8.13;;;3.03;;
11211;SDS011;5663;50.864;12.096;2023-02-01T06:53:27;10.70;;;3.40;;
11211;SDS011;5663;50.864;12.096;2023-02-01T06:55:57;11.27;;;3.50;;
11211;SDS011;5663;50.864;12.096;2023-02-01T06:58:28;12.00;;;3.57;;
11211;SDS011;5663;50.864;12.096;2023-02-01T07:01:03;11.73;;;3.70;;
11211;SDS011;5663;50.864;12.096;2023-02-01T07:03:34;8.67;;;3.13;;
11211;SDS011;5663;50.864;12.096;2023-02-01T07:06:05;8.10;;;3.00;;
11211;SDS011;5663;50.864;12.096;2023-02-01T07:08:37;10.00;;;2.80;;
11211;SDS011;5663;50.864;12.096;2023-02-01T07:11:09;8.47;;;3.33;;
11211;SDS011;5663;50.864;12.096;2023-02-01T07:13:39;8.17;;;3.30;;
11211;SDS011;5663;50.864;12.096;2023-02-01T07:16:10;9.00;;;3.30;;
11211;SDS011;5663;50.864;12.096;2023-02-01T07:18:40;8.73;;;2.97;;
11211;SDS011;5663;50.864;12.096;2023-02-01T07:21:13;9.60;;;3.00;;
11211;SDS011;5663;50.864;12.096;2023-02-01T07:23:41;12.40;;;3.77;;
11211;SDS011;5663;50.864;12.096;2023-02-01T07:26:12;8.93;;;2.50;;
11211;SDS011;5663;50.864;12.096;2023-02-01T07:28:43;8.67;;;2.90;;
11211;SDS011;5663;50.864;12.096;2023-02-01T07:31:13;9.43;;;2.90;;
11211;SDS011;5663;50.864;12.096;2023-02-01T07:33:46;9.73;;;3.07;;
11211;SDS011;5663;50.864;12.096;2023-02-01T07:36:20;10.30;;;3.23;;
11211;SDS011;5663;50.864;12.096;2023-02-01T07:39:14;8.87;;;3.10;;
11211;SDS011;5663;50.864;12.096;2023-02-01T07:41:59;9.27;;;2.80;;
11211;SDS011;5663;50.864;12.096;2023-02-01T07:44:35;7.30;;;2.77;;
11211;SDS011;5663;50.864;12.096;2023-02-01T07:47:10;6.00;;;2.57;;
11211;SDS011;5663;50.864;12.096;2023-02-01T07:49:48;12.83;;;3.27;;
11211;SDS011;5663;50.864;12.096;2023-02-01T07:52:30;10.67;;;2.90;;
11211;SDS011;5663;50.864;12.096;2023-02-01T07:55:00;10.80;;;3.00;;
11211;SDS011;5663;50.864;12.096;2023-02-01T07:57:32;8.43;;;2.90;;
11211;SDS011;5663;50.864;12.096;2023-02-01T08:00:01;10.63;;;3.40;;
11211;SDS011;5663;50.864;12.096;2023-02-01T08:02:49;9.83;;;2.40;;
11211;SDS011;5663;50.864;12.096;2023-02-01T08:05:18;11.90;;;2.77;;
11211;SDS011;5663;50.864;12.096;2023-02-01T08:07:49;10.07;;;2.80;;
11211;SDS011;5663;50.864;12.096;2023-02-01T08:10:17;9.67;;;2.93;;
11211;SDS011;5663;50.864;12.096;2023-02-01T08:12:45;9.67;;;3.20;;
11211;SDS011;5663;50.864;12.096;2023-02-01T08:15:14;9.57;;;2.57;;
11211;SDS011;5663;50.864;12.096;2023-02-01T08:17:45;8.70;;;2.70;;
11211;SDS011;5663;50.864;12.096;2023-02-01T08:20:13;15.13;;;2.70;;
11211;SDS011;5663;50.864;12.096;2023-02-01T08:22:42;7.03;;;2.60;;
11211;SDS011;5663;50.864;12.096;2023-02-01T08:25:11;9.50;;;2.70;;
11211;SDS011;5663;50.864;12.096;2023-02-01T08:27:38;8.40;;;2.60;;
11211;SDS011;5663;50.864;12.096;2023-02-01T08:30:06;11.40;;;3.00;;
11211;SDS011;5663;50.864;12.096;2023-02-01T08:32:34;7.00;;;2.20;;
11211;SDS011;5663;50.864;12.096;2023-02-01T08:35:03;8.27;;;2.63;;
11211;SDS011;5663;50.864;12.096;2023-02-01T08:37:31;11.60;;;3.17;;
11211;SDS011;5663;50.864;12.096;2023-02-01T08:39:59;5.87;;;2.57;;
11211;SDS011;5663;50.864;12.096;2023-02-01T08:42:32;10.13;;;2.87;;
11211;SDS011;5663;50.864;12.096;2023-02-01T08:45:18;8.63;;;3.27;;
11211;SDS011;5663;50.864;12.096;2023-02-01T08:47:48;9.03;;;3.07;;
11211;SDS011;5663;50.864;12.096;2023-02-01T08:50:16;10.60;;;3.90;;
11211;SDS011;5663;50.864;12.096;2023-02-01T08:52:43;9.67;;;2.80;;
11211;SDS011;5663;50.864;12.096;2023-02-01T08:55:13;9.77;;;2.67;;
11211;SDS011;5663;50.864;12.096;2023-02-01T08:57:42;9.57;;;3.20;;
11211;SDS011;5663;50.864;12.096;2023-02-01T09:00:11;10.40;;;2.90;;
11211;SDS011;5663;50.864;12.096;2023-02-01T09:02:41;9.80;;;3.10;;
11211;SDS011;5663;50.864;12.096;2023-02-01T09:05:09;8.73;;;2.87;;
11211;SDS011;5663;50.864;12.096;2023-02-01T09:07:36;10.13;;;3.07;;
11211;SDS011;5663;50.864;12.096;2023-02-01T09:10:05;11.37;;;2.90;;
11211;SDS011;5663;50.864;12.096;2023-02-01T09:12:33;9.50;;;2.97;;
11211;SDS011;5663;50.864;12.096;2023-02-01T09:15:03;7.37;;;2.77;;
11211;SDS011;5663;50.864;12.096;2023-02-01T09:17:33;10.67;;;2.70;;
11211;SDS011;5663;50.864;12.096;2023-02-01T09:20:01;8.53;;;2.90;;
11211;SDS011;5663;50.864;12.096;2023-02-01T09:22:29;8.90;;;2.80;;
11211;SDS011;5663;50.864;12.096;2023-02-01T09:24:57;8.23;;;3.40;;
11211;SDS011;5663;50.864;12.096;2023-02-01T09:27:24;6.57;;;3.17;;
11211;SDS011;5663;50.864;12.096;2023-02-01T09:29:52;13.97;;;3.47;;
11211;SDS011;5663;50.864;12.096;2023-02-01T09:32:22;8.47;;;3.17;;
11211;SDS011;5663;50.864;12.096;2023-02-01T09:34:50;12.23;;;3.60;;
11211;SDS011;5663;50.864;12.096;2023-02-01T09:37:18;11.33;;;3.90;;
11211;SDS011;5663;50.864;12.096;2023-02-01T09:39:46;13.07;;;4.30;;
11211;SDS011;5663;50.864;12.096;2023-02-01T09:42:21;13.73;;;3.30;;
11211;SDS011;5663;50.864;12.096;2023-02-01T09:45:07;7.80;;;2.80;;
11211;SDS011;5663;50.864;12.096;2023-02-01T09:47:45;8.00;;;3.20;;
11211;SDS011;5663;50.864;12.096;2023-02-01T09:50:17;9.23;;;4.13;;
11211;SDS011;5663;50.864;12.096;2023-02-01T09:52:51;8.97;;;3.17;;
11211;SDS011;5663;50.864;12.096;2023-02-01T09:55:26;7.70;;;3.17;;
11211;SDS011;5663;50.864;12.096;2023-02-01T09:58:04;10.47;;;4.13;;
11211;SDS011;5663;50.864;12.096;2023-02-01T10:00:35;7.53;;;2.90;;
11211;SDS011;5663;50.864;12.096;2023-02-01T10:03:07;9.40;;;3.10;;
11211;SDS011;5663;50.864;12.096;2023-02-01T10:05:46;9.37;;;3.23;;
11211;SDS011;5663;50.864;12.096;2023-02-01T10:08:30;7.33;;;2.97;;
11211;SDS011;5663;50.864;12.096;2023-02-01T10:11:12;4.70;;;2.30;;
11211;SDS011;5663;50.864;12.096;2023-02-01T10:14:15;9.23;;;3.10;;
11211;SDS011;5663;50.864;12.096;2023-02-01T10:16:58;8.97;;;3.17;;
11211;SDS011;5663;50.864;12.096;2023-02-01T10:19:42;10.47;;;2.97;;
11211;SDS011;5663;50.864;12.096;2023-02-01T10:22:17;10.50;;;2.67;;
11211;SDS011;5663;50.864;12.096;2023-02-01T11:05:09;9.70;;;2.63;;
11211;SDS011;5663;50.864;12.096;2023-02-01T11:07:38;4.53;;;1.83;;
11211;SDS011;5663;50.864;12.096;2023-02-01T11:10:33;11.67;;;2.63;;
11211;SDS011;5663;50.864;12.096;2023-02-01T11:13:03;9.90;;;2.67;;
11211;SDS011;5663;50.864;12.096;2023-02-01T11:15:31;9.27;;;2.50;;
11211;SDS011;5663;50.864;12.096;2023-02-01T11:18:07;6.90;;;2.23;;
11211;SDS011;5663;50.864;12.096;2023-02-01T11:20:44;7.63;;;2.33;;
11211;SDS011;5663;50.864;12.096;2023-02-01T11:23:16;9.50;;;2.90;;
11211;SDS011;5663;50.864;12.096;2023-02-01T11:25:47;8.37;;;2.30;;
11211;SDS011;5663;50.864;12.096;2023-02-01T11:28:17;7.30;;;2.60;;
11211;SDS011;5663;50.864;12.096;2023-02-01T11:30:45;6.57;;;2.63;;
11211;SDS011;5663;50.864;12.096;2023-02-01T11:33:15;8.17;;;2.67;;
11211;SDS011;5663;50.864;12.096;2023-02-01T11:35:46;9.33;;;2.63;;
11211;SDS011;5663;50.864;12.096;2023-02-01T11:38:20;8.07;;;2.43;;
11211;SDS011;5663;50.864;12.096;2023-02-01T11:40:49;10.53;;;2.37;;
11211;SDS011;5663;50.864;12.096;2023-02-01T11:43:19;6.43;;;2.47;;
11211;SDS011;5663;50.864;12.096;2023-02-01T11:45:57;11.20;;;2.60;;
11211;SDS011;5663;50.864;12.096;2023-02-01T11:48:30;5.17;;;1.80;;
11211;SDS011;5663;50.864;12.096;2023-02-01T11:51:12;5.23;;;2.20;;
11211;SDS011;5663;50.864;12.096;2023-02-01T11:53:55;6.87;;;2.93;;
11211;SDS011;5663;50.864;12.096;2023-02-01T11:56:36;6.73;;;2.50;;
11211;SDS011;5663;50.864;12.096;2023-02-01T11:59:11;6.50;;;2.23;;
11211;SDS011;5663;50.864;12.096;2023-02-01T12:01:53;8.40;;;2.30;;
11211;SDS011;5663;50.864;12.096;2023-02-01T12:07:39;5.90;;;2.50;;
11211;SDS011;5663;50.864;12.096;2023-02-01T12:10:20;6.03;;;2.53;;
11211;SDS011;5663;50.864;12.096;2023-02-01T12:13:00;7.33;;;2.90;;
11211;SDS011;5663;50.864;12.096;2023-02-01T12:15:40;5.37;;;2.40;;
11211;SDS011;5663;50.864;12.096;2023-02-01T12:21:21;6.87;;;2.33;;
11211;SDS011;5663;50.864;12.096;2023-02-01T12:24:07;4.90;;;2.10;;
11211;SDS011;5663;50.864;12.096;2023-02-01T12:26:50;6.70;;;2.50;;
11211;SDS011;5663;50.864;12.096;2023-02-01T12:29:41;5.37;;;2.20;;
11211;SDS011;5663;50.864;12.096;2023-02-01T12:32:25;5.63;;;2.47;;
11211;SDS011;5663;50.864;12.096;2023-02-01T12:35:11;7.07;;;2.47;;
11211;SDS011;5663;50.864;12.096;2023-02-01T12:37:52;6.00;;;2.40;;
11211;SDS011;5663;50.864;12.096;2023-02-01T12:40:32;7.30;;;2.53;;
11211;SDS011;5663;50.864;12.096;2023-02-01T12:43:13;9.67;;;2.60;;
11211;SDS011;5663;50.864;12.096;2023-02-01T12:45:49;5.37;;;2.23;;
11211;SDS011;5663;50.864;12.096;2023-02-01T12:48:25;8.43;;;2.60;;
11211;SDS011;5663;50.864;12.096;2023-02-01T12:51:00;7.57;;;2.80;;
11211;SDS011;5663;50.864;12.096;2023-02-01T12:53:42;8.20;;;3.00;;
11211;SDS011;5663;50.864;12.096;2023-02-01T12:56:16;5.73;;;2.67;;
11211;SDS011;5663;50.864;12.096;2023-02-01T12:58:50;7.63;;;2.60;;
11211;SDS011;5663;50.864;12.096;2023-02-01T13:01:20;4.27;;;2.43;;
11211;SDS011;5663;50.864;12.096;2023-02-01T13:03:53;6.03;;;2.47;;
11211;SDS011;5663;50.864;12.096;2023-02-01T13:06:32;6.50;;;2.43;;
11211;SDS011;5663;50.864;12.096;2023-02-01T13:09:07;7.17;;;2.97;;
11211;SDS011;5663;50.864;12.096;2023-02-01T13:11:44;5.33;;;2.50;;
11211;SDS011;5663;50.864;12.096;2023-02-01T13:14:16;6.40;;;2.50;;
11211;SDS011;5663;50.864;12.096;2023-02-01T13:16:52;6.67;;;2.70;;
11211;SDS011;5663;50.864;12.096;2023-02-01T13:19:27;6.40;;;2.47;;
11211;SDS011;5663;50.864;12.096;2023-02-01T13:22:07;8.27;;;2.30;;
11211;SDS011;5663;50.864;12.096;2023-02-01T13:24:40;8.70;;;2.60;;
11211;SDS011;5663;50.864;12.096;2023-02-01T13:27:12;7.87;;;2.90;;
11211;SDS011;5663;50.864;12.096;2023-02-01T13:29:45;7.23;;;2.67;;
11211;SDS011;5663;50.864;12.096;2023-02-01T13:32:39;8.17;;;2.63;;
11211;SDS011;5663;50.864;12.096;2023-02-01T13:35:29;5.10;;;2.67;;
11211;SDS011;5663;50.864;12.096;2023-02-01T13:38:15;7.60;;;2.10;;
11211;SDS011;5663;50.864;12.096;2023-02-01T13:41:02;5.77;;;2.90;;
11211;SDS011;5663;50.864;12.096;2023-02-01T13:43:44;6.77;;;2.90;;
11211;SDS011;5663;50.864;12.096;2023-02-01T13:46:16;7.07;;;3.37;;
11211;SDS011;5663;50.864;12.096;2023-02-01T13:48:46;10.33;;;3.20;;
11211;SDS011;5663;50.864;12.096;2023-02-01T13:51:16;10.00;;;3.03;;
11211;SDS011;5663;50.864;12.096;2023-02-01T13:53:58;6.97;;;2.90;;
11211;SDS011;5663;50.864;12.096;2023-02-01T13:56:26;8.80;;;3.23;;
11211;SDS011;5663;50.864;12.096;2023-02-01T13:58:56;7.97;;;3.07;;
11211;SDS011;5663;50.864;12.096;2023-02-01T14:01:33;8.37;;;3.33;;
11211;SDS011;5663;50.864;12.096;2023-02-01T14:04:02;7.00;;;2.87;;
11211;SDS011;5663;50.864;12.096;2023-02-01T14:06:44;8.40;;;3.20;;
11211;SDS011;5663;50.864;12.096;2023-02-01T14:09:13;9.50;;;3.77;;
11211;SDS011;5663;50.864;12.096;2023-02-01T14:17:58;8.83;;;3.13;;
11211;SDS011;5663;50.864;12.096;2023-02-01T14:23:15;8.03;;;2.90;;
11211;SDS011;5663;50.864;12.096;2023-02-01T14:26:14;6.17;;;2.80;;
11211;SDS011;5663;50.864;12.096;2023-02-01T14:28:52;7.13;;;3.27;;
11211;SDS011;5663;50.864;12.096;2023-02-01T14:31:40;7.70;;;2.93;;
11211;SDS011;5663;50.864;12.096;2023-02-01T14:34:17;7.67;;;3.20;;
11211;SDS011;5663;50.864;12.096;2023-02-01T14:36:52;4.57;;;2.90;;
11211;SDS011;5663;50.864;12.096;2023-02-01T14:39:29;8.83;;;3.17;;
11211;SDS011;5663;50.864;12.096;2023-02-01T14:42:03;7.93;;;3.17;;
11211;SDS011;5663;50.864;12.096;2023-02-01T14:44:45;12.47;;;3.17;;
11211;SDS011;5663;50.864;12.096;2023-02-01T14:53:13;8.73;;;2.80;;
11211;SDS011;5663;50.864;12.096;2023-02-01T14:55:47;9.43;;;3.07;;
11211;SDS011;5663;50.864;12.096;2023-02-01T14:58:26;13.87;;;3.53;;
11211;SDS011;5663;50.864;12.096;2023-02-01T15:01:00;6.07;;;2.43;;
11211;SDS011;5663;50.864;12.096;2023-02-01T15:03:34;7.17;;;2.90;;
11211;SDS011;5663;50.864;12.096;2023-02-01T15:06:18;8.37;;;2.97;;
11211;SDS011;5663;50.864;12.096;2023-02-01T15:08:52;8.30;;;3.10;;
11211;SDS011;5663;50.864;12.096;2023-02-01T15:11:21;8.03;;;2.97;;
11211;SDS011;5663;50.864;12.096;2023-02-01T15:13:49;9.80;;;3.53;;
11211;SDS011;5663;50.864;12.096;2023-02-01T15:16:20;7.17;;;3.13;;
11211;SDS011;5663;50.864;12.096;2023-02-01T16:20:38;4.80;;;2.20;;
11211;SDS011;5663;50.864;12.096;2023-02-01T16:23:06;5.47;;;2.33;;
11211;SDS011;5663;50.864;12.096;2023-02-01T16:25:34;6.47;;;2.70;;
11211;SDS011;5663;50.864;12.096;2023-02-01T16:28:02;5.10;;;2.77;;
11211;SDS011;5663;50.864;12.096;2023-02-01T16:30:31;9.43;;;3.10;;
11211;SDS011;5663;50.864;12.096;2023-02-01T16:32:59;6.83;;;2.30;;
11211;SDS011;5663;50.864;12.096;2023-02-01T16:35:31;6.23;;;2.67;;
11211;SDS011;5663;50.864;12.096;2023-02-01T16:38:03;5.33;;;2.10;;
11211;SDS011;5663;50.864;12.096;2023-02-01T16:40:34;5.27;;;2.20;;
11211;SDS011;5663;50.864;12.096;2023-02-01T16:43:05;5.53;;;2.47;;
11211;SDS011;5663;50.864;12.096;2023-02-01T16:45:38;3.83;;;2.13;;
11211;SDS011;5663;50.864;12.096;2023-02-01T16:48:06;4.53;;;1.70;;
11211;SDS011;5663;50.864;12.096;2023-02-01T16:50:33;4.90;;;2.10;;
11211;SDS011;5663;50.864;12.096;2023-02-01T16:53:03;10.00;;;2.50;;
11211;SDS011;5663;50.864;12.096;2023-02-01T16:55:30;3.67;;;1.90;;
11211;SDS011;5663;50.864;12.096;2023-02-01T16:57:58;5.53;;;2.27;;
11211;SDS011;5663;50.864;12.096;2023-02-01T17:00:26;5.30;;;2.10;;
11211;SDS011;5663;50.864;12.096;2023-02-01T17:02:56;5.23;;;2.37;;
11211;SDS011;5663;50.864;12.096;2023-02-01T17:05:24;4.87;;;2.37;;
11211;SDS011;5663;50.864;12.096;2023-02-01T17:07:52;5.30;;;2.30;;
11211;SDS011;5663;50.864;12.096;2023-02-01T17:10:25;7.07;;;2.27;;
11211;SDS011;5663;50.864;12.096;2023-02-01T17:12:53;2.87;;;1.50;;
11211;SDS011;5663;50.864;12.096;2023-02-01T17:15:20;2.00;;;0.80;;
11211;SDS011;5663;50.864;12.096;2023-02-01T17:17:48;1.80;;;1.10;;
11211;SDS011;5663;50.864;12.096;2023-02-01T18:19:16;2.33;;;1.67;;
11211;SDS011;5663;50.864;12.096;2023-02-01T18:21:43;2.70;;;1.50;;
11211;SDS011;5663;50.864;12.096;2023-02-01T18:24:11;4.20;;;2.07;;
11211;SDS011;5663;50.864;12.096;2023-02-01T18:26:40;2.03;;;1.73;;
11211;SDS011;5663;50.864;12.096;2023-02-01T18:29:08;2.47;;;1.53;;
11211;SDS011;5663;50.864;12.096;2023-02-01T18:31:36;3.27;;;1.77;;
11211;SDS011;5663;50.864;12.096;2023-02-01T18:34:10;2.47;;;1.63;;
11211;SDS011;5663;50.864;12.096;2023-02-01T18:36:48;2.50;;;1.67;;
11211;SDS011;5663;50.864;12.096;2023-02-01T18:39:15;2.63;;;1.60;;
11211;SDS011;5663;50.864;12.096;2023-02-01T18:41:43;1.70;;;1.37;;
11211;SDS011;5663;50.864;12.096;2023-02-01T18:44:12;2.63;;;1.80;;
11211;SDS011;5663;50.864;12.096;2023-02-01T18:46:41;3.87;;;1.60;;
11211;SDS011;5663;50.864;12.096;2023-02-01T18:49:09;3.27;;;1.83;;
11211;SDS011;5663;50.864;12.096;2023-02-01T18:51:38;5.30;;;1.90;;
11211;SDS011;5663;50.864;12.096;2023-02-01T18:54:08;3.63;;;1.83;;
11211;SDS011;5663;50.864;12.096;2023-02-01T18:56:37;4.27;;;2.40;;
11211;SDS011;5663;50.864;12.096;2023-02-01T18:59:05;2.53;;;1.80;;
11211;SDS011;5663;50.864;12.096;2023-02-01T19:01:33;2.50;;;1.73;;
11211;SDS011;5663;50.864;12.096;2023-02-01T19:04:01;3.47;;;1.97;;
11211;SDS011;5663;50.864;12.096;2023-02-01T19:06:29;5.10;;;2.20;;
11211;SDS011;5663;50.864;12.096;2023-02-01T19:08:57;5.67;;;2.60;;
11211;SDS011;5663;50.864;12.096;2023-02-01T19:11:26;4.67;;;2.10;;
11211;SDS011;5663;50.864;12.096;2023-02-01T19:13:54;4.97;;;2.97;;
11211;SDS011;5663;50.864;12.096;2023-02-01T19:16:21;5.60;;;3.20;;
11211;SDS011;5663;50.864;12.096;2023-02-01T19:18:49;5.77;;;3.30;;
11211;SDS011;5663;50.864;12.096;2023-02-01T19:21:17;4.10;;;2.40;;
11211;SDS011;5663;50.864;12.096;2023-02-01T19:23:44;7.40;;;2.27;;
11211;SDS011;5663;50.864;12.096;2023-02-01T19:26:12;3.67;;;2.10;;
11211;SDS011;5663;50.864;12.096;2023-02-01T19:28:42;5.63;;;2.27;;
11211;SDS011;5663;50.864;12.096;2023-02-01T19:31:12;4.93;;;1.80;;
11211;SDS011;5663;50.864;12.096;2023-02-01T19:33:40;3.90;;;2.10;;
11211;SDS011;5663;50.864;12.096;2023-02-01T19:36:08;4.43;;;1.90;;
11211;SDS011;5663;50.864;12.096;2023-02-01T19:38:36;3.57;;;1.93;;
11211;SDS011;5663;50.864;12.096;2023-02-01T19:41:04;4.30;;;1.77;;
11211;SDS011;5663;50.864;12.096;2023-02-01T19:43:32;5.23;;;2.20;;
11211;SDS011;5663;50.864;12.096;2023-02-01T19:46:01;3.60;;;2.00;;
11211;SDS011;5663;50.864;12.096;2023-02-01T19:48:29;3.50;;;2.10;;
11211;SDS011;5663;50.864;12.096;2023-02-01T19:50:58;3.87;;;1.93;;
11211;SDS011;5663;50.864;12.096;2023-02-01T19:53:26;4.43;;;2.10;;
11211;SDS011;5663;50.864;12.096;2023-02-01T19:55:54;2.80;;;1.90;;
11211;SDS011;5663;50.864;12.096;2023-02-01T19:58:23;4.23;;;2.10;;
11211;SDS011;5663;50.864;12.096;2023-02-01T20:00:51;7.37;;;3.13;;
11211;SDS011;5663;50.864;12.096;2023-02-01T20:03:21;3.60;;;1.93;;
11211;SDS011;5663;50.864;12.096;2023-02-01T20:05:50;6.57;;;2.70;;
11211;SDS011;5663;50.864;12.096;2023-02-01T20:08:18;3.80;;;2.00;;
11211;SDS011;5663;50.864;12.096;2023-02-01T20:10:46;7.90;;;2.50;;
11211;SDS011;5663;50.864;12.096;2023-02-01T20:13:13;5.70;;;2.30;;
11211;SDS011;5663;50.864;12.096;2023-02-01T20:15:42;5.00;;;2.20;;
11211;SDS011;5663;50.864;12.096;2023-02-01T20:18:09;8.40;;;2.47;;
11211;SDS011;5663;50.864;12.096;2023-02-01T20:20:39;6.47;;;2.00;;
11211;SDS011;5663;50.864;12.096;2023-02-01T22:26:47;5.27;;;2.07;;
11211;SDS011;5663;50.864;12.096;2023-02-01T22:29:15;6.67;;;2.20;;
11211;SDS011;5663;50.864;12.096;2023-02-01T22:31:43;4.40;;;2.00;;
11211;SDS011;5663;50.864;12.096;2023-02-01T22:34:11;6.93;;;2.10;;
11211;SDS011;5663;50.864;12.096;2023-02-01T22:36:41;4.07;;;1.87;;
11211;SDS011;5663;50.864;12.096;2023-02-01T22:39:09;3.17;;;2.07;;
11211;SDS011;5663;50.864;12.096;2023-02-01T22:41:36;4.27;;;2.10;;
11211;SDS011;5663;50.864;12.096;2023-02-01T22:44:05;5.90;;;2.30;;